West Berne, New York
Current Conditions -  °F | °C
As of 4:51 PM on Sunday 23 Nov 2014 (Local Time) from KALB Reporting Station
Broken Clouds Broken Clouds  
Wind Chill: 52°   Ceiling: 6000
Heat Index: 52°   Visibility: 10mi
Dew Point: 29°   Wind: 7mph
Humidity: 41%   Direction: 170°S
Pressure: 30.06"   Gusts: NA
Location:  42.6069°N, 74.1594°W
Report Text: KALB 232151Z 17006KT 10SM BKN060 BKN095 11/M02 A3006 RMK AO2 SLP182 T01111017
Loading
Personal Weather Stations






























Interactive Weather Map New forecast layout! Learn more

10-Day Weather Forecast

Advertisements
Track Severe Weather on mobile